sensor_id;sensor_type;location;lat;lon;timestamp;P1;durP1;ratioP1;P2;durP2;ratioP2
81217;SDS011;70689;52.494;13.420;2023-10-19T00:01:55;18.55;;;10.35;;
81217;SDS011;70689;52.494;13.420;2023-10-19T00:04:25;16.40;;;10.38;;
81217;SDS011;70689;52.494;13.420;2023-10-19T00:06:51;16.80;;;9.65;;
81217;SDS011;70689;52.494;13.420;2023-10-19T00:09:20;18.45;;;10.05;;
81217;SDS011;70689;52.494;13.420;2023-10-19T00:11:46;20.13;;;11.43;;
81217;SDS011;70689;52.494;13.420;2023-10-19T00:14:12;18.15;;;10.35;;
81217;SDS011;70689;52.494;13.420;2023-10-19T00:16:42;17.77;;;10.90;;
81217;SDS011;70689;52.494;13.420;2023-10-19T00:19:14;19.05;;;10.38;;
81217;SDS011;70689;52.494;13.420;2023-10-19T00:21:44;17.02;;;9.77;;
81217;SDS011;70689;52.494;13.420;2023-10-19T00:24:20;16.05;;;10.30;;
81217;SDS011;70689;52.494;13.420;2023-10-19T00:26:48;19.80;;;10.90;;
81217;SDS011;70689;52.494;13.420;2023-10-19T00:29:14;18.88;;;10.93;;
81217;SDS011;70689;52.494;13.420;2023-10-19T00:31:55;20.25;;;10.80;;
81217;SDS011;70689;52.494;13.420;2023-10-19T00:34:23;19.65;;;10.63;;
81217;SDS011;70689;52.494;13.420;2023-10-19T00:36:52;16.55;;;10.30;;
81217;SDS011;70689;52.494;13.420;2023-10-19T00:39:17;16.67;;;10.60;;
81217;SDS011;70689;52.494;13.420;2023-10-19T00:41:46;17.85;;;10.63;;
81217;SDS011;70689;52.494;13.420;2023-10-19T00:44:12;17.58;;;10.85;;
81217;SDS011;70689;52.494;13.420;2023-10-19T00:46:47;18.80;;;10.50;;
81217;SDS011;70689;52.494;13.420;2023-10-19T00:49:27;18.20;;;10.30;;
81217;SDS011;70689;52.494;13.420;2023-10-19T00:51:54;16.75;;;10.68;;
81217;SDS011;70689;52.494;13.420;2023-10-19T00:54:29;17.70;;;10.65;;
81217;SDS011;70689;52.494;13.420;2023-10-19T00:57:11;21.15;;;11.32;;
81217;SDS011;70689;52.494;13.420;2023-10-19T00:59:38;17.50;;;10.88;;
81217;SDS011;70689;52.494;13.420;2023-10-19T01:02:19;18.25;;;10.57;;
81217;SDS011;70689;52.494;13.420;2023-10-19T01:04:54;18.70;;;11.07;;
81217;SDS011;70689;52.494;13.420;2023-10-19T01:07:28;20.23;;;11.07;;
81217;SDS011;70689;52.494;13.420;2023-10-19T01:09:58;18.85;;;11.45;;
81217;SDS011;70689;52.494;13.420;2023-10-19T01:12:26;19.50;;;11.38;;
81217;SDS011;70689;52.494;13.420;2023-10-19T01:15:04;18.50;;;10.63;;
81217;SDS011;70689;52.494;13.420;2023-10-19T01:17:55;17.35;;;10.55;;
81217;SDS011;70689;52.494;13.420;2023-10-19T01:20:22;19.60;;;10.68;;
81217;SDS011;70689;52.494;13.420;2023-10-19T01:28:19;17.42;;;10.35;;
81217;SDS011;70689;52.494;13.420;2023-10-19T01:30:47;17.42;;;11.07;;
81217;SDS011;70689;52.494;13.420;2023-10-19T01:33:16;20.42;;;11.13;;
81217;SDS011;70689;52.494;13.420;2023-10-19T01:35:43;21.25;;;11.60;;
81217;SDS011;70689;52.494;13.420;2023-10-19T01:38:28;20.58;;;11.15;;
81217;SDS011;70689;52.494;13.420;2023-10-19T01:40:58;20.55;;;11.10;;
81217;SDS011;70689;52.494;13.420;2023-10-19T01:43:28;17.35;;;10.60;;
81217;SDS011;70689;52.494;13.420;2023-10-19T01:45:59;22.63;;;11.25;;
81217;SDS011;70689;52.494;13.420;2023-10-19T01:48:30;18.80;;;11.43;;
81217;SDS011;70689;52.494;13.420;2023-10-19T01:51:03;21.23;;;11.45;;
81217;SDS011;70689;52.494;13.420;2023-10-19T01:53:33;23.48;;;11.25;;
81217;SDS011;70689;52.494;13.420;2023-10-19T01:56:04;18.63;;;11.25;;
81217;SDS011;70689;52.494;13.420;2023-10-19T01:58:38;19.77;;;11.63;;
81217;SDS011;70689;52.494;13.420;2023-10-19T02:01:08;21.58;;;11.95;;
81217;SDS011;70689;52.494;13.420;2023-10-19T02:03:37;19.88;;;10.10;;
81217;SDS011;70689;52.494;13.420;2023-10-19T02:06:07;20.13;;;12.07;;
81217;SDS011;70689;52.494;13.420;2023-10-19T02:08:54;20.63;;;11.82;;
81217;SDS011;70689;52.494;13.420;2023-10-19T02:11:43;21.65;;;11.60;;
81217;SDS011;70689;52.494;13.420;2023-10-19T02:14:12;19.92;;;11.10;;
81217;SDS011;70689;52.494;13.420;2023-10-19T02:16:45;20.10;;;11.95;;
81217;SDS011;70689;52.494;13.420;2023-10-19T02:19:12;21.85;;;12.07;;
81217;SDS011;70689;52.494;13.420;2023-10-19T02:21:38;22.10;;;10.98;;
81217;SDS011;70689;52.494;13.420;2023-10-19T02:24:08;23.35;;;12.27;;
81217;SDS011;70689;52.494;13.420;2023-10-19T02:26:39;22.80;;;12.77;;
81217;SDS011;70689;52.494;13.420;2023-10-19T02:29:06;20.30;;;12.30;;
81217;SDS011;70689;52.494;13.420;2023-10-19T02:31:33;20.73;;;12.70;;
81217;SDS011;70689;52.494;13.420;2023-10-19T02:33:59;25.90;;;12.77;;
81217;SDS011;70689;52.494;13.420;2023-10-19T02:36:25;21.70;;;12.50;;
81217;SDS011;70689;52.494;13.420;2023-10-19T02:38:56;20.75;;;11.27;;
81217;SDS011;70689;52.494;13.420;2023-10-19T02:41:29;22.17;;;12.48;;
81217;SDS011;70689;52.494;13.420;2023-10-19T02:43:55;21.45;;;11.45;;
81217;SDS011;70689;52.494;13.420;2023-10-19T02:46:33;25.23;;;13.15;;
81217;SDS011;70689;52.494;13.420;2023-10-19T02:49:02;18.85;;;11.93;;
81217;SDS011;70689;52.494;13.420;2023-10-19T02:51:30;23.80;;;12.10;;
81217;SDS011;70689;52.494;13.420;2023-10-19T02:53:56;21.98;;;12.15;;
81217;SDS011;70689;52.494;13.420;2023-10-19T02:56:24;22.48;;;12.73;;
81217;SDS011;70689;52.494;13.420;2023-10-19T02:58:51;20.70;;;12.25;;
81217;SDS011;70689;52.494;13.420;2023-10-19T03:01:17;19.35;;;12.23;;
81217;SDS011;70689;52.494;13.420;2023-10-19T03:03:48;19.45;;;11.98;;
81217;SDS011;70689;52.494;13.420;2023-10-19T03:06:17;22.08;;;12.00;;
81217;SDS011;70689;52.494;13.420;2023-10-19T03:08:45;20.98;;;12.52;;
81217;SDS011;70689;52.494;13.420;2023-10-19T03:11:12;21.58;;;12.00;;
81217;SDS011;70689;52.494;13.420;2023-10-19T03:13:39;23.40;;;13.35;;
81217;SDS011;70689;52.494;13.420;2023-10-19T03:16:06;18.10;;;11.55;;
81217;SDS011;70689;52.494;13.420;2023-10-19T03:18:35;21.42;;;12.40;;
81217;SDS011;70689;52.494;13.420;2023-10-19T03:21:03;21.55;;;12.23;;
81217;SDS011;70689;52.494;13.420;2023-10-19T03:23:29;22.75;;;12.30;;
81217;SDS011;70689;52.494;13.420;2023-10-19T03:25:59;20.00;;;12.63;;
81217;SDS011;70689;52.494;13.420;2023-10-19T03:28:47;22.17;;;13.27;;
81217;SDS011;70689;52.494;13.420;2023-10-19T03:31:13;20.65;;;10.93;;
81217;SDS011;70689;52.494;13.420;2023-10-19T03:33:43;19.65;;;12.30;;
81217;SDS011;70689;52.494;13.420;2023-10-19T03:36:21;20.40;;;11.95;;
81217;SDS011;70689;52.494;13.420;2023-10-19T03:38:51;20.33;;;12.35;;
81217;SDS011;70689;52.494;13.420;2023-10-19T03:41:19;22.88;;;12.77;;
81217;SDS011;70689;52.494;13.420;2023-10-19T03:43:51;23.70;;;12.75;;
81217;SDS011;70689;52.494;13.420;2023-10-19T03:46:19;20.52;;;12.20;;
81217;SDS011;70689;52.494;13.420;2023-10-19T03:48:56;20.60;;;12.43;;
81217;SDS011;70689;52.494;13.420;2023-10-19T03:51:38;20.60;;;12.82;;
81217;SDS011;70689;52.494;13.420;2023-10-19T03:54:24;24.15;;;13.88;;
81217;SDS011;70689;52.494;13.420;2023-10-19T03:56:50;28.20;;;13.95;;
81217;SDS011;70689;52.494;13.420;2023-10-19T03:59:17;21.23;;;13.23;;
81217;SDS011;70689;52.494;13.420;2023-10-19T04:01:43;24.60;;;12.82;;
81217;SDS011;70689;52.494;13.420;2023-10-19T04:04:09;22.05;;;13.55;;
81217;SDS011;70689;52.494;13.420;2023-10-19T04:06:36;24.15;;;13.40;;
81217;SDS011;70689;52.494;13.420;2023-10-19T04:09:03;24.05;;;13.60;;
81217;SDS011;70689;52.494;13.420;2023-10-19T04:11:32;22.80;;;14.02;;
81217;SDS011;70689;52.494;13.420;2023-10-19T04:14:01;23.30;;;13.80;;
81217;SDS011;70689;52.494;13.420;2023-10-19T04:16:29;25.80;;;13.98;;
81217;SDS011;70689;52.494;13.420;2023-10-19T04:18:56;23.85;;;14.25;;
81217;SDS011;70689;52.494;13.420;2023-10-19T04:21:23;22.42;;;13.63;;
81217;SDS011;70689;52.494;13.420;2023-10-19T04:23:48;23.58;;;13.93;;
81217;SDS011;70689;52.494;13.420;2023-10-19T04:26:14;23.42;;;13.20;;
81217;SDS011;70689;52.494;13.420;2023-10-19T04:28:43;22.38;;;13.05;;
81217;SDS011;70689;52.494;13.420;2023-10-19T04:31:15;23.52;;;13.15;;
81217;SDS011;70689;52.494;13.420;2023-10-19T04:33:42;19.92;;;11.18;;
81217;SDS011;70689;52.494;13.420;2023-10-19T04:36:10;24.02;;;13.25;;
81217;SDS011;70689;52.494;13.420;2023-10-19T04:38:37;26.27;;;13.98;;
81217;SDS011;70689;52.494;13.420;2023-10-19T04:41:06;24.55;;;14.07;;
81217;SDS011;70689;52.494;13.420;2023-10-19T04:43:33;25.38;;;14.52;;
81217;SDS011;70689;52.494;13.420;2023-10-19T04:46:00;21.60;;;10.50;;
81217;SDS011;70689;52.494;13.420;2023-10-19T04:48:33;25.77;;;14.82;;
81217;SDS011;70689;52.494;13.420;2023-10-19T04:51:00;25.35;;;14.80;;
81217;SDS011;70689;52.494;13.420;2023-10-19T04:53:26;22.73;;;13.77;;
81217;SDS011;70689;52.494;13.420;2023-10-19T04:55:52;24.40;;;12.48;;
81217;SDS011;70689;52.494;13.420;2023-10-19T04:58:17;25.77;;;14.02;;
81217;SDS011;70689;52.494;13.420;2023-10-19T05:00:43;25.23;;;14.35;;
81217;SDS011;70689;52.494;13.420;2023-10-19T05:03:08;23.63;;;13.65;;
81217;SDS011;70689;52.494;13.420;2023-10-19T05:05:34;26.17;;;14.35;;
81217;SDS011;70689;52.494;13.420;2023-10-19T05:08:01;27.10;;;14.85;;
81217;SDS011;70689;52.494;13.420;2023-10-19T05:10:26;28.30;;;15.38;;
81217;SDS011;70689;52.494;13.420;2023-10-19T05:12:52;22.08;;;13.05;;
81217;SDS011;70689;52.494;13.420;2023-10-19T05:15:20;24.02;;;14.20;;
81217;SDS011;70689;52.494;13.420;2023-10-19T05:17:45;25.42;;;14.45;;
81217;SDS011;70689;52.494;13.420;2023-10-19T05:20:11;26.20;;;14.43;;
81217;SDS011;70689;52.494;13.420;2023-10-19T05:22:36;22.40;;;12.30;;
81217;SDS011;70689;52.494;13.420;2023-10-19T05:25:02;25.55;;;14.60;;
81217;SDS011;70689;52.494;13.420;2023-10-19T05:27:28;25.23;;;14.50;;
81217;SDS011;70689;52.494;13.420;2023-10-19T05:29:54;25.40;;;14.82;;
81217;SDS011;70689;52.494;13.420;2023-10-19T05:32:20;23.80;;;13.77;;
81217;SDS011;70689;52.494;13.420;2023-10-19T05:34:46;25.77;;;13.70;;
81217;SDS011;70689;52.494;13.420;2023-10-19T05:37:12;29.88;;;17.08;;
81217;SDS011;70689;52.494;13.420;2023-10-19T05:39:37;25.10;;;14.82;;
81217;SDS011;70689;52.494;13.420;2023-10-19T05:42:03;33.08;;;15.38;;
81217;SDS011;70689;52.494;13.420;2023-10-19T05:44:29;26.55;;;15.32;;
81217;SDS011;70689;52.494;13.420;2023-10-19T05:46:55;28.42;;;15.85;;
81217;SDS011;70689;52.494;13.420;2023-10-19T05:49:21;26.38;;;15.85;;
81217;SDS011;70689;52.494;13.420;2023-10-19T05:51:49;27.30;;;14.68;;
81217;SDS011;70689;52.494;13.420;2023-10-19T05:54:15;28.75;;;16.00;;
81217;SDS011;70689;52.494;13.420;2023-10-19T05:56:41;28.98;;;18.33;;
81217;SDS011;70689;52.494;13.420;2023-10-19T05:59:07;28.25;;;16.10;;
81217;SDS011;70689;52.494;13.420;2023-10-19T06:01:34;30.02;;;16.48;;
81217;SDS011;70689;52.494;13.420;2023-10-19T06:04:02;27.40;;;16.48;;
81217;SDS011;70689;52.494;13.420;2023-10-19T06:06:28;29.77;;;16.65;;
81217;SDS011;70689;52.494;13.420;2023-10-19T06:08:53;28.30;;;15.55;;
81217;SDS011;70689;52.494;13.420;2023-10-19T06:11:19;30.40;;;16.83;;
81217;SDS011;70689;52.494;13.420;2023-10-19T06:13:46;27.00;;;15.68;;
81217;SDS011;70689;52.494;13.420;2023-10-19T06:16:12;29.52;;;16.23;;
81217;SDS011;70689;52.494;13.420;2023-10-19T06:18:39;30.20;;;16.10;;
81217;SDS011;70689;52.494;13.420;2023-10-19T06:21:04;26.20;;;15.68;;
81217;SDS011;70689;52.494;13.420;2023-10-19T06:23:30;31.08;;;15.60;;
81217;SDS011;70689;52.494;13.420;2023-10-19T06:25:57;56.38;;;31.35;;
81217;SDS011;70689;52.494;13.420;2023-10-19T06:28:24;39.90;;;23.38;;
81217;SDS011;70689;52.494;13.420;2023-10-19T06:30:50;37.15;;;21.52;;
81217;SDS011;70689;52.494;13.420;2023-10-19T06:33:16;28.70;;;17.17;;
81217;SDS011;70689;52.494;13.420;2023-10-19T06:35:41;31.05;;;17.55;;
81217;SDS011;70689;52.494;13.420;2023-10-19T06:38:07;32.65;;;16.75;;
81217;SDS011;70689;52.494;13.420;2023-10-19T06:40:34;32.17;;;16.77;;
81217;SDS011;70689;52.494;13.420;2023-10-19T06:43:03;32.92;;;17.83;;
81217;SDS011;70689;52.494;13.420;2023-10-19T06:45:30;32.80;;;16.30;;
81217;SDS011;70689;52.494;13.420;2023-10-19T06:47:56;32.47;;;17.58;;
81217;SDS011;70689;52.494;13.420;2023-10-19T06:50:23;29.58;;;15.80;;
81217;SDS011;70689;52.494;13.420;2023-10-19T06:52:50;28.92;;;16.85;;
81217;SDS011;70689;52.494;13.420;2023-10-19T06:55:17;28.33;;;16.27;;
81217;SDS011;70689;52.494;13.420;2023-10-19T06:57:48;30.50;;;16.73;;
81217;SDS011;70689;52.494;13.420;2023-10-19T07:00:15;29.20;;;15.40;;
81217;SDS011;70689;52.494;13.420;2023-10-19T07:02:45;30.23;;;16.23;;
81217;SDS011;70689;52.494;13.420;2023-10-19T07:05:12;31.15;;;17.02;;
81217;SDS011;70689;52.494;13.420;2023-10-19T07:07:43;27.20;;;16.13;;
81217;SDS011;70689;52.494;13.420;2023-10-19T07:10:10;27.80;;;17.08;;
81217;SDS011;70689;52.494;13.420;2023-10-19T07:12:41;28.50;;;15.82;;
81217;SDS011;70689;52.494;13.420;2023-10-19T07:15:09;30.45;;;17.95;;
81217;SDS011;70689;52.494;13.420;2023-10-19T07:17:44;29.10;;;16.52;;
81217;SDS011;70689;52.494;13.420;2023-10-19T07:20:11;27.65;;;16.98;;
81217;SDS011;70689;52.494;13.420;2023-10-19T07:22:49;31.88;;;15.80;;
81217;SDS011;70689;52.494;13.420;2023-10-19T07:25:14;31.58;;;17.60;;
81217;SDS011;70689;52.494;13.420;2023-10-19T07:27:40;31.20;;;17.30;;
81217;SDS011;70689;52.494;13.420;2023-10-19T07:30:07;27.65;;;16.40;;
81217;SDS011;70689;52.494;13.420;2023-10-19T07:32:34;28.80;;;16.65;;
81217;SDS011;70689;52.494;13.420;2023-10-19T07:35:00;48.00;;;31.63;;
81217;SDS011;70689;52.494;13.420;2023-10-19T07:37:26;28.25;;;15.57;;
81217;SDS011;70689;52.494;13.420;2023-10-19T07:39:52;30.52;;;16.65;;
81217;SDS011;70689;52.494;13.420;2023-10-19T07:42:22;31.35;;;16.88;;
81217;SDS011;70689;52.494;13.420;2023-10-19T07:44:50;28.85;;;16.10;;
81217;SDS011;70689;52.494;13.420;2023-10-19T07:47:16;31.23;;;15.85;;
81217;SDS011;70689;52.494;13.420;2023-10-19T07:49:42;32.35;;;16.35;;
81217;SDS011;70689;52.494;13.420;2023-10-19T07:52:08;29.00;;;15.68;;
81217;SDS011;70689;52.494;13.420;2023-10-19T07:54:35;29.35;;;16.95;;
81217;SDS011;70689;52.494;13.420;2023-10-19T07:57:02;33.35;;;17.50;;
81217;SDS011;70689;52.494;13.420;2023-10-19T07:59:31;36.20;;;17.77;;
81217;SDS011;70689;52.494;13.420;2023-10-19T08:02:02;30.42;;;18.08;;
81217;SDS011;70689;52.494;13.420;2023-10-19T08:04:28;29.50;;;16.65;;
81217;SDS011;70689;52.494;13.420;2023-10-19T08:06:54;29.65;;;15.57;;
81217;SDS011;70689;52.494;13.420;2023-10-19T08:09:23;29.85;;;15.85;;
81217;SDS011;70689;52.494;13.420;2023-10-19T08:11:51;27.00;;;16.55;;
81217;SDS011;70689;52.494;13.420;2023-10-19T08:14:26;30.00;;;17.58;;
81217;SDS011;70689;52.494;13.420;2023-10-19T08:16:52;28.35;;;15.65;;
81217;SDS011;70689;52.494;13.420;2023-10-19T08:19:18;26.80;;;15.90;;
81217;SDS011;70689;52.494;13.420;2023-10-19T08:21:44;29.88;;;16.55;;
81217;SDS011;70689;52.494;13.420;2023-10-19T08:24:10;26.60;;;16.00;;
81217;SDS011;70689;52.494;13.420;2023-10-19T08:26:42;35.00;;;18.73;;
81217;SDS011;70689;52.494;13.420;2023-10-19T08:29:10;38.45;;;20.55;;
81217;SDS011;70689;52.494;13.420;2023-10-19T08:31:39;26.42;;;16.52;;
81217;SDS011;70689;52.494;13.420;2023-10-19T08:34:05;37.17;;;17.35;;
81217;SDS011;70689;52.494;13.420;2023-10-19T08:36:34;28.05;;;16.17;;
81217;SDS011;70689;52.494;13.420;2023-10-19T08:39:01;27.98;;;15.77;;
81217;SDS011;70689;52.494;13.420;2023-10-19T08:41:31;24.95;;;14.25;;
81217;SDS011;70689;52.494;13.420;2023-10-19T08:43:59;27.50;;;18.15;;
81217;SDS011;70689;52.494;13.420;2023-10-19T08:46:26;26.65;;;14.30;;
81217;SDS011;70689;52.494;13.420;2023-10-19T08:48:53;27.27;;;15.77;;
81217;SDS011;70689;52.494;13.420;2023-10-19T08:51:21;31.95;;;15.48;;
81217;SDS011;70689;52.494;13.420;2023-10-19T08:53:50;26.40;;;16.70;;
81217;SDS011;70689;52.494;13.420;2023-10-19T08:56:18;28.13;;;16.13;;
81217;SDS011;70689;52.494;13.420;2023-10-19T08:58:48;28.65;;;17.30;;
81217;SDS011;70689;52.494;13.420;2023-10-19T09:01:17;31.05;;;17.67;;
81217;SDS011;70689;52.494;13.420;2023-10-19T09:03:44;24.23;;;15.07;;
81217;SDS011;70689;52.494;13.420;2023-10-19T09:06:11;25.83;;;14.57;;
81217;SDS011;70689;52.494;13.420;2023-10-19T09:08:37;28.25;;;15.43;;
81217;SDS011;70689;52.494;13.420;2023-10-19T09:11:06;25.55;;;15.07;;
81217;SDS011;70689;52.494;13.420;2023-10-19T09:13:49;26.33;;;15.57;;
81217;SDS011;70689;52.494;13.420;2023-10-19T09:16:17;26.05;;;14.15;;
81217;SDS011;70689;52.494;13.420;2023-10-19T09:18:46;29.02;;;15.00;;
81217;SDS011;70689;52.494;13.420;2023-10-19T09:21:16;33.58;;;19.52;;
81217;SDS011;70689;52.494;13.420;2023-10-19T09:23:54;25.88;;;15.68;;
81217;SDS011;70689;52.494;13.420;2023-10-19T09:26:21;42.85;;;17.33;;
81217;SDS011;70689;52.494;13.420;2023-10-19T09:28:47;29.45;;;15.77;;
81217;SDS011;70689;52.494;13.420;2023-10-19T09:31:15;48.78;;;26.23;;
81217;SDS011;70689;52.494;13.420;2023-10-19T09:33:41;29.30;;;15.88;;
81217;SDS011;70689;52.494;13.420;2023-10-19T09:36:12;28.15;;;15.23;;
81217;SDS011;70689;52.494;13.420;2023-10-19T09:38:39;30.77;;;15.00;;
81217;SDS011;70689;52.494;13.420;2023-10-19T09:41:22;27.90;;;14.85;;
81217;SDS011;70689;52.494;13.420;2023-10-19T09:43:53;25.15;;;14.77;;
81217;SDS011;70689;52.494;13.420;2023-10-19T09:46:29;27.48;;;14.30;;
81217;SDS011;70689;52.494;13.420;2023-10-19T09:48:57;30.50;;;17.85;;
81217;SDS011;70689;52.494;13.420;2023-10-19T09:51:23;32.42;;;18.88;;
81217;SDS011;70689;52.494;13.420;2023-10-19T09:56:26;23.67;;;14.60;;
81217;SDS011;70689;52.494;13.420;2023-10-19T09:59:06;23.60;;;14.73;;
81217;SDS011;70689;52.494;13.420;2023-10-19T10:02:24;22.80;;;14.43;;
81217;SDS011;70689;52.494;13.420;2023-10-19T10:04:38;25.90;;;14.95;;
81217;SDS011;70689;52.494;13.420;2023-10-19T10:07:10;29.02;;;15.15;;
81217;SDS011;70689;52.494;13.420;2023-10-19T10:09:36;25.48;;;15.45;;
81217;SDS011;70689;52.494;13.420;2023-10-19T10:14:59;25.02;;;14.95;;
81217;SDS011;70689;52.494;13.420;2023-10-19T10:17:36;25.33;;;14.88;;
81217;SDS011;70689;52.494;13.420;2023-10-19T10:22:38;24.90;;;14.80;;
81217;SDS011;70689;52.494;13.420;2023-10-19T10:25:04;24.42;;;15.40;;
81217;SDS011;70689;52.494;13.420;2023-10-19T10:27:30;28.92;;;15.95;;
81217;SDS011;70689;52.494;13.420;2023-10-19T10:29:59;26.85;;;15.70;;
81217;SDS011;70689;52.494;13.420;2023-10-19T10:32:49;25.15;;;15.63;;
81217;SDS011;70689;52.494;13.420;2023-10-19T10:38:02;27.67;;;16.17;;
81217;SDS011;70689;52.494;13.420;2023-10-19T10:40:31;24.60;;;15.63;;
81217;SDS011;70689;52.494;13.420;2023-10-19T10:43:06;25.70;;;16.23;;
81217;SDS011;70689;52.494;13.420;2023-10-19T10:45:32;27.10;;;16.00;;
81217;SDS011;70689;52.494;13.420;2023-10-19T10:47:58;25.73;;;16.20;;
81217;SDS011;70689;52.494;13.420;2023-10-19T10:50:26;25.33;;;15.98;;
81217;SDS011;70689;52.494;13.420;2023-10-19T10:52:53;24.98;;;16.60;;
81217;SDS011;70689;52.494;13.420;2023-10-19T10:55:22;27.65;;;15.60;;
81217;SDS011;70689;52.494;13.420;2023-10-19T10:57:50;22.30;;;15.65;;
81217;SDS011;70689;52.494;13.420;2023-10-19T11:00:16;27.38;;;16.30;;
81217;SDS011;70689;52.494;13.420;2023-10-19T11:02:46;27.00;;;16.95;;
81217;SDS011;70689;52.494;13.420;2023-10-19T11:05:24;29.02;;;15.90;;
81217;SDS011;70689;52.494;13.420;2023-10-19T11:08:02;29.38;;;16.00;;
81217;SDS011;70689;52.494;13.420;2023-10-19T11:10:38;29.13;;;16.77;;
81217;SDS011;70689;52.494;13.420;2023-10-19T11:13:05;31.33;;;16.92;;
81217;SDS011;70689;52.494;13.420;2023-10-19T11:15:32;27.75;;;16.20;;
81217;SDS011;70689;52.494;13.420;2023-10-19T11:18:07;30.98;;;17.17;;
81217;SDS011;70689;52.494;13.420;2023-10-19T11:20:32;27.00;;;16.50;;
81217;SDS011;70689;52.494;13.420;2023-10-19T11:22:58;29.67;;;16.80;;
81217;SDS011;70689;52.494;13.420;2023-10-19T11:25:28;30.45;;;18.75;;
81217;SDS011;70689;52.494;13.420;2023-10-19T11:27:59;30.10;;;17.40;;
81217;SDS011;70689;52.494;13.420;2023-10-19T11:30:29;28.00;;;17.63;;
81217;SDS011;70689;52.494;13.420;2023-10-19T11:33:00;25.70;;;16.30;;
81217;SDS011;70689;52.494;13.420;2023-10-19T11:35:27;26.92;;;15.43;;
81217;SDS011;70689;52.494;13.420;2023-10-19T11:37:55;32.42;;;17.70;;
81217;SDS011;70689;52.494;13.420;2023-10-19T11:40:24;26.95;;;15.90;;
81217;SDS011;70689;52.494;13.420;2023-10-19T11:42:50;24.60;;;15.93;;
81217;SDS011;70689;52.494;13.420;2023-10-19T11:45:17;32.35;;;17.88;;
81217;SDS011;70689;52.494;13.420;2023-10-19T11:47:43;32.35;;;18.50;;
81217;SDS011;70689;52.494;13.420;2023-10-19T11:50:10;34.45;;;18.50;;
81217;SDS011;70689;52.494;13.420;2023-10-19T11:52:41;30.80;;;18.48;;
81217;SDS011;70689;52.494;13.420;2023-10-19T11:55:07;29.83;;;17.95;;
81217;SDS011;70689;52.494;13.420;2023-10-19T11:57:33;29.70;;;17.23;;
81217;SDS011;70689;52.494;13.420;2023-10-19T12:00:00;31.08;;;17.75;;
81217;SDS011;70689;52.494;13.420;2023-10-19T12:02:26;34.78;;;18.88;;
81217;SDS011;70689;52.494;13.420;2023-10-19T12:04:51;30.40;;;18.95;;
81217;SDS011;70689;52.494;13.420;2023-10-19T12:07:17;32.85;;;20.30;;
81217;SDS011;70689;52.494;13.420;2023-10-19T12:09:43;32.92;;;19.55;;
81217;SDS011;70689;52.494;13.420;2023-10-19T12:12:10;35.05;;;20.83;;
81217;SDS011;70689;52.494;13.420;2023-10-19T12:14:36;31.80;;;20.33;;
81217;SDS011;70689;52.494;13.420;2023-10-19T12:17:02;34.90;;;19.63;;
81217;SDS011;70689;52.494;13.420;2023-10-19T12:19:30;39.63;;;22.08;;
81217;SDS011;70689;52.494;13.420;2023-10-19T12:21:56;37.22;;;21.20;;
81217;SDS011;70689;52.494;13.420;2023-10-19T12:24:22;34.20;;;21.08;;
81217;SDS011;70689;52.494;13.420;2023-10-19T12:26:49;36.22;;;19.77;;
81217;SDS011;70689;52.494;13.420;2023-10-19T12:29:15;37.92;;;23.15;;
81217;SDS011;70689;52.494;13.420;2023-10-19T12:31:42;33.72;;;21.73;;
81217;SDS011;70689;52.494;13.420;2023-10-19T12:34:08;35.40;;;19.95;;
81217;SDS011;70689;52.494;13.420;2023-10-19T12:36:36;34.17;;;20.50;;
81217;SDS011;70689;52.494;13.420;2023-10-19T12:39:02;31.77;;;19.60;;
81217;SDS011;70689;52.494;13.420;2023-10-19T12:41:31;34.03;;;20.33;;
81217;SDS011;70689;52.494;13.420;2023-10-19T12:43:57;41.05;;;20.85;;
81217;SDS011;70689;52.494;13.420;2023-10-19T12:46:23;36.65;;;22.20;;
81217;SDS011;70689;52.494;13.420;2023-10-19T12:48:54;34.55;;;20.15;;
81217;SDS011;70689;52.494;13.420;2023-10-19T12:51:23;31.67;;;21.05;;
81217;SDS011;70689;52.494;13.420;2023-10-19T12:53:53;32.60;;;20.40;;
81217;SDS011;70689;52.494;13.420;2023-10-19T12:56:22;35.05;;;21.42;;
81217;SDS011;70689;52.494;13.420;2023-10-19T12:58:53;36.83;;;21.17;;
81217;SDS011;70689;52.494;13.420;2023-10-19T13:01:19;33.63;;;20.95;;
81217;SDS011;70689;52.494;13.420;2023-10-19T13:03:46;34.13;;;21.58;;
81217;SDS011;70689;52.494;13.420;2023-10-19T13:06:14;41.00;;;23.23;;
81217;SDS011;70689;52.494;13.420;2023-10-19T13:08:40;34.47;;;21.67;;
81217;SDS011;70689;52.494;13.420;2023-10-19T13:11:07;35.38;;;20.70;;
81217;SDS011;70689;52.494;13.420;2023-10-19T13:13:33;37.65;;;20.77;;
81217;SDS011;70689;52.494;13.420;2023-10-19T13:16:01;35.75;;;19.98;;
81217;SDS011;70689;52.494;13.420;2023-10-19T13:18:30;33.50;;;21.08;;
81217;SDS011;70689;52.494;13.420;2023-10-19T13:20:58;38.50;;;21.45;;
81217;SDS011;70689;52.494;13.420;2023-10-19T13:23:28;34.65;;;19.77;;
81217;SDS011;70689;52.494;13.420;2023-10-19T13:25:55;36.65;;;21.63;;
81217;SDS011;70689;52.494;13.420;2023-10-19T13:28:33;43.75;;;22.67;;
81217;SDS011;70689;52.494;13.420;2023-10-19T13:31:01;37.95;;;21.45;;
81217;SDS011;70689;52.494;13.420;2023-10-19T13:33:28;39.58;;;22.55;;
81217;SDS011;70689;52.494;13.420;2023-10-19T13:35:54;38.10;;;21.17;;
81217;SDS011;70689;52.494;13.420;2023-10-19T13:38:19;33.20;;;21.30;;
81217;SDS011;70689;52.494;13.420;2023-10-19T13:40:45;38.22;;;21.27;;
81217;SDS011;70689;52.494;13.420;2023-10-19T13:43:11;37.85;;;20.67;;
81217;SDS011;70689;52.494;13.420;2023-10-19T13:45:41;35.30;;;19.73;;
81217;SDS011;70689;52.494;13.420;2023-10-19T13:48:08;38.10;;;22.88;;
81217;SDS011;70689;52.494;13.420;2023-10-19T13:50:35;36.70;;;21.55;;
81217;SDS011;70689;52.494;13.420;2023-10-19T13:53:05;39.03;;;22.52;;
81217;SDS011;70689;52.494;13.420;2023-10-19T13:55:31;39.45;;;22.75;;
81217;SDS011;70689;52.494;13.420;2023-10-19T13:57:57;35.58;;;20.90;;
81217;SDS011;70689;52.494;13.420;2023-10-19T14:00:23;41.97;;;22.33;;
81217;SDS011;70689;52.494;13.420;2023-10-19T14:02:56;37.17;;;21.13;;
81217;SDS011;70689;52.494;13.420;2023-10-19T14:05:23;38.70;;;22.83;;
81217;SDS011;70689;52.494;13.420;2023-10-19T14:07:52;37.88;;;22.05;;
81217;SDS011;70689;52.494;13.420;2023-10-19T14:10:18;40.67;;;23.73;;
81217;SDS011;70689;52.494;13.420;2023-10-19T14:12:47;48.60;;;26.02;;
81217;SDS011;70689;52.494;13.420;2023-10-19T14:15:19;40.17;;;24.85;;
81217;SDS011;70689;52.494;13.420;2023-10-19T14:17:45;35.90;;;22.08;;
81217;SDS011;70689;52.494;13.420;2023-10-19T14:20:13;41.97;;;23.85;;
81217;SDS011;70689;52.494;13.420;2023-10-19T14:25:06;38.88;;;22.40;;
81217;SDS011;70689;52.494;13.420;2023-10-19T14:27:34;37.85;;;22.60;;
81217;SDS011;70689;52.494;13.420;2023-10-19T14:30:00;38.45;;;22.23;;
81217;SDS011;70689;52.494;13.420;2023-10-19T14:32:26;35.97;;;20.60;;
81217;SDS011;70689;52.494;13.420;2023-10-19T14:34:52;39.00;;;22.80;;
81217;SDS011;70689;52.494;13.420;2023-10-19T14:37:18;41.83;;;23.95;;